createdAt,value
2018-03-11T00:01:12.686Z,11.80
2018-03-11T00:03:40.271Z,11.80
2018-03-11T00:06:07.803Z,11.80
2018-03-11T00:08:40.715Z,11.80
2018-03-11T00:11:08.242Z,11.80
2018-03-11T00:13:35.751Z,11.80
2018-03-11T00:16:03.719Z,11.80
2018-03-11T00:18:31.230Z,11.80
2018-03-11T00:20:58.763Z,11.80
2018-03-11T00:23:26.272Z,11.80
2018-03-11T00:25:53.824Z,11.80
2018-03-11T00:28:21.395Z,11.80
2018-03-11T00:30:49.322Z,11.80
2018-03-11T00:33:16.842Z,11.80
2018-03-11T00:35:46.894Z,11.80
2018-03-11T00:38:14.423Z,11.80
2018-03-11T00:40:41.971Z,11.80
2018-03-11T00:43:09.484Z,11.80
2018-03-11T00:45:37.067Z,11.80
2018-03-11T00:48:04.615Z,11.80
2018-03-11T00:50:32.184Z,11.80
2018-03-11T00:52:59.715Z,11.80
2018-03-11T00:55:34.474Z,11.80
2018-03-11T00:58:02.042Z,11.80
2018-03-11T01:00:29.991Z,11.80
2018-03-11T01:02:57.524Z,11.80
2018-03-11T01:05:25.044Z,11.80
2018-03-11T01:07:52.578Z,11.80
2018-03-11T01:10:20.098Z,11.80
2018-03-11T01:12:47.671Z,11.80
2018-03-11T01:15:15.195Z,11.80
2018-03-11T01:17:42.710Z,11.80
2018-03-11T01:20:10.619Z,11.70
2018-03-11T01:22:38.149Z,11.80
2018-03-11T01:25:05.694Z,11.80
2018-03-11T01:27:33.650Z,11.80
2018-03-11T01:30:04.825Z,11.80
2018-03-11T01:32:32.400Z,11.80
2018-03-11T01:35:04.847Z,11.70
2018-03-11T01:37:32.494Z,11.70
2018-03-11T01:40:00.056Z,11.70
2018-03-11T01:42:27.962Z,11.70
2018-03-11T01:44:55.504Z,11.70
2018-03-11T01:47:23.123Z,11.70
2018-03-11T01:49:50.647Z,11.70
2018-03-11T01:52:18.645Z,11.70
2018-03-11T01:54:46.163Z,11.70
2018-03-11T01:57:14.382Z,11.70
2018-03-11T01:59:41.911Z,11.70
2018-03-11T02:02:09.674Z,11.70
2018-03-11T02:04:37.194Z,11.70
2018-03-11T02:07:10.787Z,11.70
2018-03-11T02:09:38.298Z,11.70
2018-03-11T02:12:06.315Z,11.70
2018-03-11T02:14:33.955Z,11.70
2018-03-11T02:17:01.493Z,11.70
2018-03-11T02:19:29.050Z,11.70
2018-03-11T02:21:56.570Z,11.70
2018-03-11T02:24:28.913Z,11.70
2018-03-11T02:26:56.446Z,11.70
2018-03-11T02:29:23.979Z,11.70
2018-03-11T02:31:51.519Z,11.70
2018-03-11T02:34:19.035Z,11.60
2018-03-11T02:36:46.946Z,11.60
2018-03-11T02:39:14.471Z,11.60
2018-03-11T02:41:42.386Z,11.60
2018-03-11T02:44:09.897Z,11.60
2018-03-11T02:46:37.831Z,11.60
2018-03-11T02:49:05.342Z,11.60
2018-03-11T02:51:32.953Z,11.60
2018-03-11T02:54:00.478Z,11.60
2018-03-11T02:56:34.495Z,11.60
2018-03-11T02:59:02.019Z,11.60
2018-03-11T03:01:29.601Z,11.60
2018-03-11T03:04:04.438Z,11.60
2018-03-11T03:06:32.031Z,11.60
2018-03-11T03:08:59.547Z,11.60
2018-03-11T03:11:27.157Z,11.60
2018-03-11T03:13:58.900Z,11.60
2018-03-11T03:16:26.409Z,11.60
2018-03-11T03:18:53.918Z,11.60
2018-03-11T03:21:28.562Z,11.60
2018-03-11T03:23:56.086Z,11.60
2018-03-11T03:26:23.629Z,11.60
2018-03-11T03:28:53.738Z,11.60
2018-03-11T03:31:28.571Z,11.50
2018-03-11T03:33:56.070Z,11.50
2018-03-11T03:36:24.029Z,11.50
2018-03-11T03:38:51.549Z,11.50
2018-03-11T03:41:19.160Z,11.50
2018-03-11T03:43:47.173Z,11.50
2018-03-11T03:46:14.700Z,11.50
2018-03-11T03:48:42.603Z,11.50
2018-03-11T03:51:10.210Z,11.50
2018-03-11T03:53:37.723Z,11.50
2018-03-11T03:56:16.455Z,11.50
2018-03-11T03:58:43.966Z,11.50
2018-03-11T04:01:11.497Z,11.50
2018-03-11T04:03:39.020Z,11.50
2018-03-11T04:06:06.532Z,11.50
2018-03-11T04:08:34.500Z,11.50
2018-03-11T04:11:02.163Z,11.50
2018-03-11T04:13:29.798Z,11.50
2018-03-11T04:15:58.887Z,11.50
2018-03-11T04:18:26.402Z,11.50
2018-03-11T04:20:54.002Z,11.50
2018-03-11T04:23:21.504Z,11.50
2018-03-11T04:25:49.015Z,11.50
2018-03-11T04:28:16.567Z,11.50
2018-03-11T04:30:44.081Z,11.50
2018-03-11T04:33:11.590Z,11.50
2018-03-11T04:35:39.102Z,11.50
2018-03-11T04:38:06.633Z,11.50
2018-03-11T04:40:34.162Z,11.50
2018-03-11T04:43:05.001Z,11.40
2018-03-11T04:45:40.522Z,11.40
2018-03-11T04:48:08.110Z,11.40
2018-03-11T04:50:35.628Z,11.40
2018-03-11T04:53:03.226Z,11.40
2018-03-11T04:55:30.761Z,11.40
2018-03-11T04:57:58.295Z,11.40
2018-03-11T05:00:25.823Z,11.40
2018-03-11T05:02:53.512Z,11.40
2018-03-11T05:05:21.130Z,11.40
2018-03-11T05:07:48.685Z,11.40
2018-03-11T05:10:16.867Z,11.40
2018-03-11T05:12:44.779Z,11.40
2018-03-11T05:15:12.300Z,11.40
2018-03-11T05:17:40.263Z,11.40
2018-03-11T05:20:08.219Z,11.40
2018-03-11T05:22:35.778Z,11.40
2018-03-11T05:25:03.301Z,11.40
2018-03-11T05:27:30.822Z,11.40
2018-03-11T05:29:58.342Z,11.40
2018-03-11T05:32:25.856Z,11.40
2018-03-11T05:34:59.002Z,11.40
2018-03-11T05:37:26.538Z,11.40
2018-03-11T05:39:59.040Z,11.40
2018-03-11T05:42:26.669Z,11.40
2018-03-11T05:44:58.877Z,11.40
2018-03-11T05:47:28.999Z,11.40
2018-03-11T05:49:56.546Z,11.40
2018-03-11T05:52:24.082Z,11.40
2018-03-11T05:54:51.590Z,11.40
2018-03-11T05:57:19.196Z,11.40
2018-03-11T05:59:46.847Z,11.40
2018-03-11T06:02:14.366Z,11.40
2018-03-11T06:04:52.517Z,11.40
2018-03-11T06:07:20.078Z,11.40
2018-03-11T06:09:47.584Z,11.40
2018-03-11T06:12:15.191Z,11.40
2018-03-11T06:14:42.706Z,11.40
2018-03-11T06:17:10.335Z,11.40
2018-03-11T06:19:37.863Z,11.40
2018-03-11T06:22:05.422Z,11.40
2018-03-11T06:24:32.946Z,11.40
2018-03-11T06:27:05.052Z,11.40
2018-03-11T06:29:32.564Z,11.40
2018-03-11T06:32:00.109Z,11.40
2018-03-11T06:34:27.710Z,11.40
2018-03-11T06:36:55.243Z,11.40
2018-03-11T06:39:22.751Z,11.40
2018-03-11T06:41:50.290Z,11.40
2018-03-11T06:44:17.820Z,11.40
2018-03-11T06:46:58.287Z,11.40
2018-03-11T06:49:28.955Z,11.40
2018-03-11T06:51:56.499Z,11.40
2018-03-11T06:54:24.017Z,11.40
2018-03-11T06:56:51.532Z,11.40
2018-03-11T06:59:19.484Z,11.40
2018-03-11T07:01:47.171Z,11.40
2018-03-11T07:04:15.120Z,11.40
2018-03-11T07:06:52.686Z,11.40
2018-03-11T07:09:20.224Z,11.40
2018-03-11T07:11:47.771Z,11.40
2018-03-11T07:14:22.638Z,11.40
2018-03-11T07:16:50.154Z,11.40
2018-03-11T07:19:17.682Z,11.50
2018-03-11T07:21:45.223Z,11.60
2018-03-11T07:24:12.862Z,11.70
2018-03-11T07:26:40.399Z,11.90
2018-03-11T07:29:07.941Z,12.10
2018-03-11T07:31:35.476Z,12.40
2018-03-11T07:34:03.449Z,12.70
2018-03-11T07:36:30.971Z,12.70
2018-03-11T07:38:58.574Z,12.90
2018-03-11T07:41:29.077Z,13.00
2018-03-11T07:43:56.606Z,13.10
2018-03-11T07:46:24.134Z,13.30
2018-03-11T07:48:51.674Z,13.40
2018-03-11T07:51:19.182Z,13.50
2018-03-11T07:53:46.773Z,13.60
2018-03-11T07:56:16.908Z,13.70
2018-03-11T07:58:52.651Z,14.00
2018-03-11T08:01:20.602Z,13.90
2018-03-11T08:03:48.115Z,14.00
2018-03-11T08:06:15.622Z,14.00
2018-03-11T08:08:43.146Z,14.10
2018-03-11T08:11:11.054Z,14.10
2018-03-11T08:13:38.636Z,14.10
2018-03-11T08:16:06.242Z,14.20
2018-03-11T08:18:33.817Z,14.30
2018-03-11T08:21:01.335Z,14.20
2018-03-11T08:23:28.951Z,14.30
2018-03-11T08:25:59.058Z,14.40
2018-03-11T08:28:26.567Z,14.50
2018-03-11T08:30:54.096Z,14.40
2018-03-11T08:33:22.097Z,14.60
2018-03-11T08:35:52.970Z,14.60
2018-03-11T08:38:28.752Z,14.60
2018-03-11T08:40:56.686Z,14.70
2018-03-11T08:43:24.214Z,14.70
2018-03-11T08:45:51.731Z,14.80
2018-03-11T08:48:19.750Z,14.80
2018-03-11T08:50:47.256Z,14.80
2018-03-11T08:53:15.241Z,14.90
2018-03-11T08:55:42.946Z,14.90
2018-03-11T08:58:10.654Z,14.90
2018-03-11T09:00:38.601Z,15.00
2018-03-11T09:03:27.762Z,15.00
2018-03-11T09:05:55.271Z,15.10
2018-03-11T09:08:22.883Z,15.00
2018-03-11T09:10:50.404Z,15.00
2018-03-11T09:13:17.930Z,15.10
2018-03-11T09:15:45.481Z,15.10
2018-03-11T09:18:13.012Z,15.20
2018-03-11T09:20:40.566Z,15.10
2018-03-11T09:23:08.080Z,15.20
2018-03-11T09:25:41.026Z,15.30
2018-03-11T09:28:11.163Z,15.30
2018-03-11T09:30:38.746Z,15.40
2018-03-11T09:33:16.618Z,15.40
2018-03-11T09:35:47.019Z,15.40
2018-03-11T09:38:28.340Z,15.40
2018-03-11T09:40:55.854Z,15.50
2018-03-11T09:43:23.387Z,15.50
2018-03-11T09:45:51.013Z,15.50
2018-03-11T09:48:18.566Z,15.50
2018-03-11T09:50:47.110Z,15.40
2018-03-11T09:53:14.655Z,15.50
2018-03-11T09:55:42.227Z,15.60
2018-03-11T09:58:09.734Z,15.60
2018-03-11T10:00:37.288Z,15.60
2018-03-11T10:03:04.807Z,15.70
2018-03-11T10:05:32.324Z,15.80
2018-03-11T10:07:59.847Z,15.70
2018-03-11T10:10:27.370Z,15.80
2018-03-11T10:12:54.903Z,15.80
2018-03-11T10:15:22.459Z,15.90
2018-03-11T10:17:49.958Z,15.80
2018-03-11T10:20:17.467Z,15.80
2018-03-11T10:22:44.994Z,15.90
2018-03-11T10:25:17.047Z,16.00
2018-03-11T10:27:44.955Z,15.90
2018-03-11T10:30:18.983Z,15.90
2018-03-11T10:32:46.586Z,16.00
2018-03-11T10:35:14.511Z,15.90
2018-03-11T10:37:42.086Z,15.90
2018-03-11T10:40:09.957Z,15.90
2018-03-11T10:42:37.877Z,16.00
2018-03-11T10:45:05.397Z,16.10
2018-03-11T10:47:33.348Z,16.00
2018-03-11T10:50:01.027Z,16.00
2018-03-11T10:52:28.694Z,16.10
2018-03-11T10:54:59.231Z,16.10
2018-03-11T10:57:29.139Z,16.00
2018-03-11T10:59:59.055Z,16.00
2018-03-11T11:02:27.566Z,16.10
2018-03-11T11:04:59.955Z,16.20
2018-03-11T11:10:23.067Z,16.20
2018-03-11T11:12:53.187Z,16.20
2018-03-11T11:15:20.855Z,16.20
2018-03-11T11:17:53.028Z,16.10
2018-03-11T11:20:23.132Z,16.20
2018-03-11T11:22:51.111Z,16.30
2018-03-11T11:25:18.619Z,16.30
2018-03-11T11:27:46.232Z,16.10
2018-03-11T11:30:13.750Z,16.20
2018-03-11T11:32:41.287Z,16.30
2018-03-11T11:35:08.801Z,16.30
2018-03-11T11:37:36.706Z,16.30
2018-03-11T11:40:04.227Z,16.30
2018-03-11T11:42:32.170Z,16.40
2018-03-11T11:44:59.699Z,16.40
2018-03-11T11:47:27.234Z,16.40
2018-03-11T11:49:54.777Z,16.40
2018-03-11T11:52:22.824Z,16.50
2018-03-11T11:54:50.414Z,16.50
2018-03-11T11:57:23.200Z,16.40
2018-03-11T11:59:50.854Z,16.40
2018-03-11T12:02:18.926Z,16.50
2018-03-11T12:04:46.570Z,16.50
2018-03-11T12:07:14.118Z,16.40
2018-03-11T12:09:47.198Z,16.40
2018-03-11T12:12:14.783Z,16.50
2018-03-11T12:14:42.341Z,16.60
2018-03-11T12:17:09.999Z,16.50
2018-03-11T12:19:37.668Z,16.50
2018-03-11T12:22:05.327Z,16.60
2018-03-11T12:24:35.328Z,16.60
2018-03-11T12:27:10.805Z,16.50
2018-03-11T12:29:38.360Z,16.50
2018-03-11T12:32:05.982Z,16.60
2018-03-11T12:34:33.682Z,16.70
2018-03-11T12:37:01.205Z,16.60
2018-03-11T12:39:29.147Z,16.60
2018-03-11T12:41:59.107Z,16.60
2018-03-11T12:44:26.718Z,16.70
2018-03-11T12:46:54.271Z,16.60
2018-03-11T12:49:23.129Z,16.60
2018-03-11T12:51:50.785Z,16.70
2018-03-11T12:54:18.319Z,16.70
2018-03-11T12:56:47.123Z,16.60
2018-03-11T12:59:14.776Z,16.60
2018-03-11T13:01:42.310Z,16.60
2018-03-11T13:04:16.982Z,16.70
2018-03-11T13:06:44.514Z,16.70
2018-03-11T13:09:12.051Z,16.70
2018-03-11T13:11:39.585Z,16.80
2018-03-11T13:14:07.330Z,16.80
2018-03-11T13:16:35.171Z,16.80
2018-03-11T13:19:02.704Z,16.80
2018-03-11T13:21:30.358Z,16.80
2018-03-11T13:23:59.174Z,16.90
2018-03-11T13:26:27.104Z,16.80
2018-03-11T13:28:54.703Z,16.80
2018-03-11T13:31:22.258Z,16.90
2018-03-11T13:34:04.899Z,16.90
2018-03-11T13:36:35.294Z,16.90
2018-03-11T13:39:16.992Z,16.80
2018-03-11T13:41:44.547Z,16.90
2018-03-11T13:44:17.122Z,16.90
2018-03-11T13:47:11.415Z,16.80
2018-03-11T13:49:38.949Z,16.80
2018-03-11T13:52:22.875Z,16.90
2018-03-11T13:54:53.218Z,16.90
2018-03-11T13:57:34.522Z,16.80
2018-03-11T14:00:02.526Z,16.80
2018-03-11T14:02:40.857Z,16.90
2018-03-11T14:05:08.378Z,16.90
2018-03-11T14:07:35.891Z,16.90
2018-03-11T14:10:03.817Z,17.00
2018-03-11T14:12:31.367Z,17.00
2018-03-11T14:14:58.886Z,17.00
2018-03-11T14:17:26.400Z,17.00
2018-03-11T14:19:59.105Z,16.90
2018-03-11T14:22:29.207Z,17.00
2018-03-11T14:24:59.147Z,17.10
2018-03-11T14:27:40.440Z,17.10
2018-03-11T14:30:11.155Z,17.10
2018-03-11T14:32:39.100Z,17.10
2018-03-11T14:35:06.637Z,17.10
2018-03-11T14:37:35.303Z,17.00
2018-03-11T14:40:02.917Z,17.10
2018-03-11T14:42:35.280Z,17.10
2018-03-11T14:45:05.205Z,17.20
2018-03-11T14:47:32.719Z,17.10
2018-03-11T14:50:16.651Z,17.00
2018-03-11T14:52:47.251Z,17.00
2018-03-11T14:55:14.764Z,17.10
2018-03-11T14:57:42.370Z,17.10
2018-03-11T15:00:10.008Z,17.00
2018-03-11T15:02:37.592Z,17.10
2018-03-11T15:05:05.148Z,17.20
2018-03-11T15:07:32.803Z,17.20
2018-03-11T15:10:00.475Z,17.20
2018-03-11T15:12:28.022Z,17.20
2018-03-11T15:14:59.276Z,17.20
2018-03-11T15:17:29.191Z,17.20
2018-03-11T15:19:56.851Z,17.20
2018-03-11T15:22:24.766Z,17.30
2018-03-11T15:24:52.374Z,17.30
2018-03-11T15:27:20.357Z,17.30
2018-03-11T15:29:47.904Z,17.30
2018-03-11T15:32:15.441Z,17.30
2018-03-11T15:34:47.299Z,17.30
2018-03-11T15:37:14.824Z,17.30
2018-03-11T15:39:47.373Z,17.40
2018-03-11T15:42:15.000Z,17.40
2018-03-11T15:44:52.975Z,17.50
2018-03-11T15:47:23.198Z,17.50
2018-03-11T15:49:50.723Z,17.50
2018-03-11T15:52:18.250Z,17.50
2018-03-11T15:54:45.798Z,17.50
2018-03-11T15:57:13.704Z,17.50
2018-03-11T15:59:41.379Z,17.50
2018-03-11T16:02:09.004Z,17.60
2018-03-11T16:04:41.374Z,17.60
2018-03-11T16:07:08.925Z,17.60
2018-03-11T16:09:47.004Z,17.60
2018-03-11T16:12:14.587Z,17.70
2018-03-11T16:14:42.743Z,17.70
2018-03-11T16:17:16.938Z,17.70
2018-03-11T16:19:44.457Z,17.70
2018-03-11T16:22:11.986Z,17.70
2018-03-11T16:24:39.934Z,17.70
2018-03-11T16:27:07.324Z,17.80
2018-03-11T16:29:35.387Z,17.80
2018-03-11T16:32:03.052Z,17.80
2018-03-11T16:34:35.212Z,17.80
2018-03-11T16:37:05.334Z,17.70
2018-03-11T16:39:32.854Z,17.70
2018-03-11T16:42:00.442Z,17.70
2018-03-11T16:44:29.306Z,17.70
2018-03-11T16:46:56.890Z,17.70
2018-03-11T16:49:24.443Z,17.70
2018-03-11T16:51:51.991Z,17.70
2018-03-11T16:54:19.555Z,17.70
2018-03-11T16:56:47.199Z,17.70
2018-03-11T16:59:14.715Z,17.60
2018-03-11T17:01:47.275Z,17.70
2018-03-11T17:04:14.787Z,17.70
2018-03-11T17:06:42.379Z,17.80
2018-03-11T17:09:09.913Z,17.80
2018-03-11T17:11:37.488Z,17.80
2018-03-11T17:14:05.146Z,17.80
2018-03-11T17:16:32.675Z,17.80
2018-03-11T17:19:00.198Z,17.80
2018-03-11T17:21:27.774Z,17.80
2018-03-11T17:23:55.292Z,17.80
2018-03-11T17:26:22.870Z,17.90
2018-03-11T17:28:50.386Z,17.90
2018-03-11T17:31:18.015Z,17.90
2018-03-11T17:33:45.542Z,17.90
2018-03-11T17:36:13.102Z,17.90
2018-03-11T17:38:47.007Z,18.00
2018-03-11T17:41:14.580Z,18.10
2018-03-11T17:43:42.126Z,18.00
2018-03-11T17:46:09.694Z,18.10
2018-03-11T17:48:41.273Z,18.10
2018-03-11T17:51:16.983Z,18.10
2018-03-11T17:53:44.542Z,18.10
2018-03-11T17:56:12.067Z,18.10
2018-03-11T17:58:39.697Z,18.20
2018-03-11T18:01:07.663Z,18.20
2018-03-11T18:03:35.625Z,18.20
2018-03-11T18:06:03.139Z,18.20
2018-03-11T18:08:30.748Z,18.30
2018-03-11T18:10:59.419Z,18.30
2018-03-11T18:13:29.318Z,18.20
2018-03-11T18:15:56.829Z,18.30
2018-03-11T18:18:24.448Z,18.40
2018-03-11T18:20:51.995Z,18.20
2018-03-11T18:23:19.770Z,17.90
2018-03-11T18:25:58.963Z,17.50
2018-03-11T18:28:29.422Z,17.50
2018-03-11T18:30:59.342Z,17.20
2018-03-11T18:33:26.847Z,17.00
2018-03-11T18:35:54.450Z,16.90
2018-03-11T18:38:21.967Z,16.80
2018-03-11T18:40:59.054Z,16.80
2018-03-11T18:43:40.860Z,16.60
2018-03-11T18:46:08.439Z,16.60
2018-03-11T18:48:35.949Z,16.50
2018-03-11T18:51:05.427Z,16.40
2018-03-11T18:53:32.949Z,16.40
2018-03-11T18:58:53.988Z,16.10
2018-03-11T19:01:21.530Z,16.10
2018-03-11T19:03:49.107Z,16.10
2018-03-11T19:06:29.021Z,16.00
2018-03-11T19:09:05.030Z,16.00
2018-03-11T19:11:32.573Z,15.90
2018-03-11T19:14:05.371Z,15.90
2018-03-11T19:16:32.897Z,15.80
2018-03-11T19:21:53.122Z,15.70
2018-03-11T19:24:34.646Z,15.70
2018-03-11T19:27:11.039Z,15.60
2018-03-11T19:29:41.300Z,15.60
2018-03-11T19:32:08.802Z,15.60
2018-03-11T19:34:36.394Z,15.50
2018-03-11T19:37:03.947Z,15.50
2018-03-11T19:39:41.019Z,15.40
2018-03-11T19:42:08.590Z,15.40
2018-03-11T19:44:36.106Z,15.30
2018-03-11T19:47:03.759Z,15.30
2018-03-11T19:49:31.377Z,15.30
2018-03-11T19:52:10.978Z,15.30
2018-03-11T19:54:41.447Z,15.20
2018-03-11T19:57:08.963Z,15.20
2018-03-11T19:59:36.557Z,15.20
2018-03-11T20:02:04.073Z,15.10
2018-03-11T20:04:31.672Z,15.10
2018-03-11T20:06:59.335Z,15.10
2018-03-11T20:09:26.900Z,15.00
2018-03-11T20:12:04.970Z,15.00
2018-03-11T20:14:32.616Z,15.00
2018-03-11T20:17:00.242Z,15.00
2018-03-11T20:19:27.878Z,14.90
2018-03-11T20:21:55.389Z,14.90
2018-03-11T20:24:23.402Z,14.90
2018-03-11T20:26:50.904Z,14.90
2018-03-11T20:29:18.527Z,14.90
2018-03-11T20:31:46.058Z,14.80
2018-03-11T20:34:13.639Z,14.80
2018-03-11T20:36:41.362Z,14.80
2018-03-11T20:39:28.769Z,14.70
2018-03-11T20:41:56.308Z,14.70
2018-03-11T20:47:17.014Z,14.60
2018-03-11T20:49:44.531Z,14.70
2018-03-11T20:52:17.450Z,14.60
2018-03-11T20:54:44.970Z,14.60
2018-03-11T20:57:12.564Z,14.60
2018-03-11T20:59:40.091Z,14.60
2018-03-11T21:02:07.702Z,14.50
2018-03-11T21:07:41.235Z,14.50
2018-03-11T21:10:22.831Z,14.50
2018-03-11T21:12:50.334Z,14.50
2018-03-11T21:15:17.850Z,14.40
2018-03-11T21:17:47.504Z,14.40
2018-03-11T21:20:15.046Z,14.40
2018-03-11T21:22:42.643Z,14.40
2018-03-11T21:25:10.147Z,14.40
2018-03-11T21:27:37.758Z,14.30
2018-03-11T21:30:05.267Z,14.30
2018-03-11T21:32:32.888Z,14.30
2018-03-11T21:35:00.514Z,14.30
2018-03-11T21:37:28.048Z,14.30
2018-03-11T21:39:55.634Z,14.30
2018-03-11T21:42:23.154Z,14.20
2018-03-11T21:44:50.746Z,14.20
2018-03-11T21:47:29.173Z,14.20
2018-03-11T21:50:05.424Z,14.20
2018-03-11T21:52:32.994Z,14.20
2018-03-11T21:55:00.503Z,14.10
2018-03-11T22:00:23.424Z,14.10
2018-03-11T22:05:44.534Z,14.10
2018-03-11T22:08:12.062Z,14.00
2018-03-11T22:10:41.503Z,14.00
2018-03-11T22:13:17.038Z,14.00
2018-03-11T22:15:44.604Z,14.00
2018-03-11T22:18:12.114Z,14.00
2018-03-11T22:20:39.718Z,14.00
2018-03-11T22:23:22.670Z,13.90
2018-03-11T22:25:50.222Z,13.90
2018-03-11T22:28:17.733Z,13.90
2018-03-11T22:30:47.359Z,13.90
2018-03-11T22:33:14.871Z,13.90
2018-03-11T22:35:42.470Z,13.90
2018-03-11T22:38:11.380Z,13.90
2018-03-11T22:40:52.937Z,13.80
2018-03-11T22:43:34.704Z,13.80
2018-03-11T22:46:02.206Z,13.80
2018-03-11T22:48:35.382Z,13.80
2018-03-11T22:51:11.107Z,13.80
2018-03-11T22:54:04.361Z,13.80
2018-03-11T22:56:31.965Z,13.80
2018-03-11T22:59:16.830Z,13.70
2018-03-11T23:01:53.158Z,13.70
2018-03-11T23:04:20.765Z,13.70
2018-03-11T23:06:53.731Z,13.70
2018-03-11T23:09:21.419Z,13.70
2018-03-11T23:14:41.531Z,13.70
2018-03-11T23:17:09.243Z,13.70
2018-03-11T23:19:47.166Z,13.60
2018-03-11T23:22:14.725Z,13.60
2018-03-11T23:24:47.526Z,13.60
2018-03-11T23:30:11.522Z,13.60
2018-03-11T23:32:39.026Z,13.60
2018-03-11T23:35:06.609Z,13.60
2018-03-11T23:37:34.142Z,13.60
2018-03-11T23:40:01.723Z,13.60
2018-03-11T23:42:29.397Z,13.60
2018-03-11T23:44:56.896Z,13.60
2018-03-11T23:47:46.258Z,13.50
2018-03-11T23:50:13.885Z,13.50
2018-03-11T23:52:41.393Z,13.50
2018-03-11T23:55:11.460Z,13.50
2018-03-11T23:57:41.572Z,13.50
